Time;durP1;ratioP1;P1;durP2;ratioP2;P2;SDS_P1;SDS_P2;PMS_P1;PMS_P2;Temp;Humidity;BMP_temperature;BMP_pressure;BME280_temperature;BME280_humidity;BME280_pressure;Samples;Min_cycle;Max_cycle;Signal;HPM_P1;HPM_P2
2022/12/29 00:01:37;;;;;;;34.13;20.80;;;11.80;90.00;;;;;;6338373;22;20409;-79
2022/12/29 00:04:04;;;;;;;33.00;21.10;;;11.80;90.00;;;;;;6338522;22;20302;-79
2022/12/29 00:06:30;;;;;;;31.98;21.58;;;11.80;90.00;;;;;;6337527;22;20282;-79
2022/12/29 00:08:56;;;;;;;35.15;21.67;;;11.80;89.90;;;;;;6338292;22;20493;-79
2022/12/29 00:11:27;;;;;;;32.15;21.38;;;11.90;89.70;;;;;;6337870;22;20026;-79
2022/12/29 00:16:40;;;;;;;31.88;20.83;;;11.80;89.70;;;;;;6337513;22;20111;-78
2022/12/29 00:19:06;;;;;;;33.50;22.42;;;11.70;89.80;;;;;;6338615;22;19999;-79
2022/12/29 00:35:35;;;;;;;34.15;21.15;;;11.90;89.70;;;;;;6338047;22;20047;-79
2022/12/29 00:46:19;;;;;;;29.10;19.80;;;11.90;90.10;;;;;;6335409;22;20018;-79
2022/12/29 00:51:30;;;;;;;26.40;18.88;;;12.00;90.10;;;;;;6336359;22;20051;-80
2022/12/29 00:53:55;;;;;;;28.17;18.85;;;11.90;90.10;;;;;;6338032;22;20036;-79
2022/12/29 00:56:21;;;;;;;29.42;18.15;;;12.00;90.20;;;;;;6336714;22;20009;-80
2022/12/29 00:58:47;;;;;;;27.27;17.75;;;12.00;90.10;;;;;;6338380;22;19998;-79
2022/12/29 01:01:12;;;;;;;26.17;17.75;;;12.00;90.10;;;;;;6337893;22;20003;-79
2022/12/29 01:03:38;;;;;;;27.75;18.17;;;12.00;90.10;;;;;;6338220;22;20002;-79
2022/12/29 01:06:07;;;;;;;25.92;17.10;;;12.00;90.10;;;;;;6336769;22;20464;-80
2022/12/29 01:08:33;;;;;;;24.85;18.02;;;12.10;90.20;;;;;;6310533;22;20011;-80
2022/12/29 01:11:10;;;;;;;23.17;15.90;;;12.00;90.20;;;;;;6338172;22;20309;-79
2022/12/29 01:13:38;;;;;;;27.50;17.00;;;12.00;90.10;;;;;;6310165;22;20136;-79
2022/12/29 01:16:05;;;;;;;26.92;17.05;;;12.10;90.10;;;;;;6337081;22;20003;-80
2022/12/29 01:18:31;;;;;;;22.63;16.35;;;12.10;90.10;;;;;;6337372;22;20006;-71
2022/12/29 01:21:02;;;;;;;22.73;15.70;;;12.10;90.10;;;;;;6336559;22;20030;-71
2022/12/29 01:23:29;;;;;;;22.33;15.73;;;12.10;90.30;;;;;;6309842;22;20007;-72
2022/12/29 01:25:55;;;;;;;25.30;17.95;;;12.00;89.80;;;;;;6337346;22;20003;-72
2022/12/29 01:28:22;;;;;;;33.60;20.75;;;12.00;90.10;;;;;;6337073;22;20660;-73
2022/12/29 01:30:48;;;;;;;31.48;20.85;;;11.90;90.10;;;;;;6309777;22;20010;-72
2022/12/29 01:33:14;;;;;;;28.60;19.23;;;11.90;90.20;;;;;;6337882;22;20429;-72
2022/12/29 01:35:39;;;;;;;30.42;20.98;;;11.80;90.40;;;;;;6337231;22;20010;-72
2022/12/29 01:38:05;;;;;;;26.83;19.73;;;11.70;90.20;;;;;;6310337;22;20003;-72
2022/12/29 01:40:31;;;;;;;33.50;20.60;;;11.60;90.40;;;;;;6337235;22;20351;-73
2022/12/29 01:42:57;;;;;;;31.17;21.40;;;11.50;90.40;;;;;;6337691;22;20003;-72
2022/12/29 01:45:23;;;;;;;32.58;20.85;;;11.50;90.50;;;;;;6308858;22;20061;-72
2022/12/29 01:47:55;;;;;;;33.47;19.25;;;11.40;90.40;;;;;;6337807;22;20078;-73
2022/12/29 01:50:32;;;;;;;31.90;19.73;;;11.40;90.50;;;;;;6337283;22;20026;-73
2022/12/29 01:53:11;;;;;;;27.77;19.42;;;11.40;90.60;;;;;;6337726;22;19998;-73
2022/12/29 01:55:51;;;;;;;31.10;21.02;;;11.40;90.70;;;;;;6337190;22;20051;-73
2022/12/29 01:58:20;;;;;;;25.63;19.27;;;11.40;90.50;;;;;;6337840;22;20064;-73
2022/12/29 02:00:46;;;;;;;28.92;20.45;;;11.40;90.30;;;;;;6337862;22;20010;-73
2022/12/29 02:03:12;;;;;;;31.52;19.65;;;11.50;90.50;;;;;;6338111;22;20424;-72
2022/12/29 02:05:44;;;;;;;27.48;18.58;;;11.50;90.30;;;;;;6336361;22;20470;-72
2022/12/29 02:08:12;;;;;;;28.65;18.80;;;11.60;90.30;;;;;;6337834;22;20003;-72
2022/12/29 02:10:40;;;;;;;28.20;19.60;;;11.50;90.40;;;;;;6337057;22;20048;-73
2022/12/29 02:13:06;;;;;;;27.02;18.20;;;11.50;90.40;;;;;;6337871;22;20002;-72
2022/12/29 02:15:50;;;;;;;32.00;19.92;;;11.50;90.60;;;;;;6336919;22;19995;-72
2022/12/29 02:18:59;;;;;;;26.60;18.08;;;11.50;90.60;;;;;;6339431;22;19999;-72
2022/12/29 02:21:44;;;;;;;29.10;17.70;;;11.40;90.70;;;;;;6306623;22;20048;-72
2022/12/29 02:24:39;;;;;;;29.67;19.48;;;11.40;90.70;;;;;;6339123;22;20021;-72
2022/12/29 02:27:20;;;;;;;26.73;18.85;;;11.30;90.70;;;;;;6338772;22;19999;-72
2022/12/29 02:30:04;;;;;;;25.95;17.05;;;11.30;90.70;;;;;;6338970;22;20014;-72
2022/12/29 02:32:54;;;;;;;26.10;17.83;;;11.30;90.80;;;;;;6339279;22;20077;-72
2022/12/29 02:35:46;;;;;;;25.63;16.77;;;11.30;90.70;;;;;;6339119;22;20002;-73
2022/12/29 02:38:45;;;;;;;24.42;16.48;;;11.20;90.90;;;;;;6338984;22;20054;-73
2022/12/29 02:41:33;;;;;;;30.63;19.52;;;11.20;90.70;;;;;;6339105;22;20013;-72
2022/12/29 02:44:02;;;;;;;26.77;18.17;;;11.10;90.60;;;;;;6338952;22;20013;-72
2022/12/29 02:47:00;;;;;;;34.35;21.35;;;10.90;90.60;;;;;;6338613;22;20318;-72
2022/12/29 02:49:40;;;;;;;25.60;16.63;;;10.80;90.80;;;;;;6338584;22;20478;-72
2022/12/29 02:52:15;;;;;;;30.40;17.67;;;10.80;90.80;;;;;;6339022;22;20002;-74
2022/12/29 02:54:41;;;;;;;25.40;16.40;;;10.90;90.80;;;;;;6311127;22;20068;-74
2022/12/29 02:57:20;;;;;;;24.67;16.75;;;10.90;90.70;;;;;;6338499;22;20406;-74
2022/12/29 02:59:57;;;;;;;21.50;15.23;;;11.00;90.70;;;;;;6338288;22;20357;-73
2022/12/29 03:02:44;;;;;;;24.58;16.05;;;11.10;90.60;;;;;;6338952;22;20087;-74
2022/12/29 03:05:22;;;;;;;22.60;15.77;;;11.10;90.20;;;;;;6311445;22;20002;-73
2022/12/29 03:08:11;;;;;;;24.00;16.13;;;11.10;90.10;;;;;;6339335;22;20381;-72
2022/12/29 03:10:52;;;;;;;22.52;14.93;;;11.20;90.20;;;;;;6338487;22;20619;-72
2022/12/29 03:16:35;;;;;;;22.30;15.02;;;11.20;90.10;;;;;;6338652;22;20360;-72
2022/12/29 03:19:07;;;;;;;22.23;15.55;;;11.10;90.20;;;;;;6338747;22;20064;-72
2022/12/29 03:24:35;;;;;;;23.13;15.00;;;11.10;90.20;;;;;;6339170;22;20014;-72
2022/12/29 03:27:06;;;;;;;24.45;16.45;;;11.20;90.20;;;;;;6338497;22;20082;-72
2022/12/29 03:29:38;;;;;;;29.27;16.73;;;11.10;90.00;;;;;;6310079;22;20089;-72
2022/12/29 03:32:05;;;;;;;25.00;16.02;;;11.10;90.00;;;;;;6338453;22;20003;-72
2022/12/29 03:34:33;;;;;;;22.73;15.57;;;11.00;90.20;;;;;;6339315;22;20370;-72
2022/12/29 03:37:16;;;;;;;24.40;14.88;;;11.00;90.10;;;;;;6338346;22;19999;-71
2022/12/29 03:39:42;;;;;;;24.88;16.17;;;11.00;90.10;;;;;;6338091;22;20006;-72
2022/12/29 03:42:20;;;;;;;25.48;17.60;;;11.00;90.30;;;;;;6338071;22;20011;-72
2022/12/29 03:44:46;;;;;;;30.33;15.10;;;11.00;90.00;;;;;;6311208;22;20027;-71
2022/12/29 03:47:14;;;;;;;24.10;16.00;;;10.80;90.00;;;;;;6338140;22;20003;-72
2022/12/29 03:49:40;;;;;;;23.83;15.60;;;10.80;90.10;;;;;;6310901;22;20093;-72
2022/12/29 03:52:06;;;;;;;23.80;16.75;;;10.90;90.20;;;;;;6338567;22;20073;-72
2022/12/29 03:54:32;;;;;;;26.85;17.73;;;10.90;90.10;;;;;;6338962;22;19999;-72
2022/12/29 03:56:58;;;;;;;25.80;16.42;;;10.70;89.40;;;;;;6338456;22;20336;-73
2022/12/29 03:59:24;;;;;;;24.60;15.88;;;10.60;90.00;;;;;;6338074;22;20001;-73
2022/12/29 04:01:49;;;;;;;22.58;14.95;;;10.40;90.20;;;;;;6338625;22;20379;-73
2022/12/29 04:04:15;;;;;;;24.30;15.05;;;10.50;90.30;;;;;;6338640;22;20025;-73
2022/12/29 04:06:41;;;;;;;23.85;17.08;;;10.60;90.20;;;;;;6338351;22;19999;-74
2022/12/29 04:09:07;;;;;;;20.95;14.38;;;10.50;89.40;;;;;;6338528;22;20073;-73
2022/12/29 04:11:33;;;;;;;22.20;14.93;;;10.60;90.10;;;;;;6338720;22;20333;-73
2022/12/29 04:13:59;;;;;;;21.23;13.65;;;10.60;90.10;;;;;;6338786;22;20003;-73
2022/12/29 04:16:24;;;;;;;21.23;15.00;;;10.60;90.10;;;;;;6337838;22;20421;-73
2022/12/29 04:18:50;;;;;;;23.00;14.88;;;10.50;90.00;;;;;;6309934;22;20002;-73
2022/12/29 04:21:16;;;;;;;24.98;15.20;;;10.60;90.00;;;;;;6310281;22;20007;-73
2022/12/29 04:23:41;;;;;;;24.95;16.80;;;10.60;90.00;;;;;;6338445;22;19999;-73
2022/12/29 04:26:08;;;;;;;22.60;15.23;;;10.50;89.70;;;;;;6338396;22;20002;-72
2022/12/29 04:28:35;;;;;;;22.90;14.82;;;10.40;89.90;;;;;;6338032;22;20067;-72
2022/12/29 04:31:02;;;;;;;22.38;14.45;;;10.40;90.00;;;;;;6338124;22;20196;-72
2022/12/29 04:33:28;;;;;;;24.13;15.38;;;10.40;90.00;;;;;;6337823;22;20006;-72
2022/12/29 04:35:54;;;;;;;20.95;14.73;;;10.40;90.10;;;;;;6309514;22;19995;-73
2022/12/29 04:38:22;;;;;;;23.67;15.27;;;10.50;90.20;;;;;;6309150;22;20041;-73
2022/12/29 04:40:48;;;;;;;21.73;15.38;;;10.60;90.10;;;;;;6337570;22;20078;-73
2022/12/29 04:43:14;;;;;;;25.20;15.88;;;10.70;90.10;;;;;;6310367;22;20003;-73
2022/12/29 04:45:44;;;;;;;19.85;14.38;;;10.70;90.00;;;;;;6337965;22;20045;-73
2022/12/29 04:48:10;;;;;;;21.95;15.88;;;10.80;89.80;;;;;;6337704;22;20070;-74
2022/12/29 04:50:36;;;;;;;22.77;15.35;;;10.90;89.50;;;;;;6337530;22;20033;-73
2022/12/29 04:53:01;;;;;;;19.73;14.00;;;10.90;89.50;;;;;;6338160;22;19998;-73
2022/12/29 04:55:27;;;;;;;23.90;15.75;;;10.80;89.30;;;;;;6337618;22;19998;-73
2022/12/29 04:57:53;;;;;;;20.13;13.63;;;10.70;88.60;;;;;;6337573;22;19999;-73
2022/12/29 05:00:19;;;;;;;20.73;14.20;;;10.70;88.70;;;;;;6337532;22;20026;-73
2022/12/29 05:02:45;;;;;;;21.25;13.52;;;10.60;88.90;;;;;;6338347;22;20363;-74
2022/12/29 05:05:11;;;;;;;20.80;14.73;;;10.80;89.10;;;;;;6338077;22;20042;-74
2022/12/29 05:07:37;;;;;;;20.35;14.00;;;10.70;88.60;;;;;;6337175;22;19999;-73
2022/12/29 05:10:03;;;;;;;19.13;13.55;;;10.70;89.10;;;;;;6337838;22;19994;-73
2022/12/29 05:12:34;;;;;;;20.50;14.38;;;10.60;88.80;;;;;;6309535;22;20011;-73
2022/12/29 05:15:00;;;;;;;19.17;14.27;;;10.70;89.30;;;;;;6338138;22;20026;-73
2022/12/29 05:17:26;;;;;;;20.52;13.88;;;10.80;89.20;;;;;;6337051;22;20416;-73
2022/12/29 05:19:52;;;;;;;22.73;14.65;;;10.90;89.00;;;;;;6337951;22;20006;-73
2022/12/29 05:22:18;;;;;;;25.27;16.23;;;9.60;88.30;;;;;;6337946;22;20317;-73
2022/12/29 05:24:43;;;;;;;23.75;15.35;;;10.90;89.10;;;;;;6338054;22;20336;-73
2022/12/29 05:27:09;;;;;;;21.65;14.60;;;10.70;89.50;;;;;;6337270;22;20007;-74
2022/12/29 05:29:34;;;;;;;20.42;14.25;;;10.70;89.70;;;;;;6337348;22;20333;-73
2022/12/29 05:32:00;;;;;;;21.40;14.40;;;10.70;89.60;;;;;;6337689;22;20014;-73
2022/12/29 05:34:26;;;;;;;22.15;15.30;;;10.70;90.30;;;;;;6337623;22;20008;-73
2022/12/29 05:36:51;;;;;;;20.85;14.30;;;10.80;90.20;;;;;;6337290;22;19999;-73
2022/12/29 05:39:17;;;;;;;22.67;14.40;;;10.90;90.30;;;;;;6337230;22;20002;-73
2022/12/29 05:41:43;;;;;;;20.05;13.73;;;10.90;90.30;;;;;;6337325;22;20002;-73
2022/12/29 05:44:10;;;;;;;22.05;15.05;;;10.90;90.10;;;;;;6337691;22;20060;-73
2022/12/29 05:46:37;;;;;;;19.50;13.68;;;;;;;;;;6309448;22;20081;-73
2022/12/29 05:49:02;;;;;;;21.73;14.65;;;;;;;;;;6337444;22;19999;-73
2022/12/29 05:51:28;;;;;;;27.42;16.80;;;10.90;89.80;;;;;;6337908;22;20325;-73
2022/12/29 05:53:54;;;;;;;22.90;15.30;;;;;;;;;;6339749;22;19995;-73
2022/12/29 05:56:20;;;;;;;17.88;13.75;;;10.70;90.10;;;;;;6339226;22;20002;-73
2022/12/29 05:58:46;;;;;;;22.48;14.52;;;10.70;90.30;;;;;;6339314;22;20006;-73
2022/12/29 06:01:12;;;;;;;18.30;13.63;;;10.70;90.30;;;;;;6339035;22;20007;-73
2022/12/29 06:03:38;;;;;;;20.05;14.75;;;10.80;90.70;;;;;;6339590;22;20485;-72
2022/12/29 06:06:04;;;;;;;22.73;14.88;;;10.90;90.70;;;;;;6338939;22;20003;-71
2022/12/29 06:08:29;;;;;;;20.65;14.40;;;10.80;90.70;;;;;;6339464;22;20085;-73
2022/12/29 06:10:55;;;;;;;22.33;14.70;;;10.80;90.70;;;;;;6339215;22;20006;-73
2022/12/29 06:13:21;;;;;;;21.58;13.93;;;10.90;90.80;;;;;;6338844;22;20392;-73
2022/12/29 06:15:48;;;;;;;21.33;14.75;;;10.80;90.80;;;;;;6338767;22;20294;-73
2022/12/29 06:18:14;;;;;;;21.75;14.00;;;10.80;90.80;;;;;;6338641;22;20027;-73
2022/12/29 06:20:40;;;;;;;18.45;14.02;;;10.80;90.80;;;;;;6339454;22;20007;-73
2022/12/29 06:23:06;;;;;;;23.17;13.73;;;10.90;90.80;;;;;;6339183;22;20098;-73
2022/12/29 06:25:33;;;;;;;19.48;13.10;;;10.90;90.90;;;;;;6338633;22;20062;-73
2022/12/29 06:27:59;;;;;;;20.98;13.88;;;10.90;90.90;;;;;;6339005;22;20032;-73
2022/12/29 06:30:25;;;;;;;19.85;13.57;;;10.90;90.90;;;;;;6337888;22;20010;-73
2022/12/29 06:32:51;;;;;;;18.42;13.25;;;10.90;90.80;;;;;;6311350;22;20048;-73
2022/12/29 06:35:16;;;;;;;21.25;13.68;;;10.90;90.80;;;;;;6311026;22;20009;-72
2022/12/29 06:37:43;;;;;;;18.98;13.10;;;10.80;90.60;;;;;;6339191;22;20003;-72
2022/12/29 06:40:09;;;;;;;18.38;13.48;;;10.80;90.70;;;;;;6339163;22;19999;-73
2022/12/29 06:42:35;;;;;;;22.52;13.77;;;10.80;90.70;;;;;;6338582;22;20006;-72
2022/12/29 06:45:01;;;;;;;18.98;13.90;;;10.80;90.70;;;;;;6339079;22;20006;-73
2022/12/29 06:47:27;;;;;;;20.88;14.00;;;10.80;90.40;;;;;;6310820;22;20010;-73
2022/12/29 06:49:52;;;;;;;20.45;13.90;;;10.80;90.40;;;;;;6339303;22;19999;-73
2022/12/29 06:52:18;;;;;;;21.02;14.57;;;10.80;90.40;;;;;;6338856;22;20009;-73
2022/12/29 06:54:44;;;;;;;18.95;13.68;;;10.90;90.40;;;;;;6311656;22;19999;-73
2022/12/29 06:57:10;;;;;;;20.67;13.68;;;10.90;90.20;;;;;;6338464;22;20033;-73
2022/12/29 06:59:35;;;;;;;22.70;13.70;;;10.90;90.40;;;;;;6338738;22;19995;-73
2022/12/29 07:02:04;;;;;;;20.08;13.98;;;10.90;90.30;;;;;;6338185;22;20026;-73
2022/12/29 07:04:29;;;;;;;19.58;14.27;;;10.90;90.50;;;;;;6338511;22;20003;-73
2022/12/29 07:06:55;;;;;;;20.88;14.02;;;;;;;;;;6338472;22;20003;-74
2022/12/29 07:09:21;;;;;;;21.17;12.93;;;10.90;90.20;;;;;;6338241;22;20060;-74
2022/12/29 07:11:47;;;;;;;20.88;14.32;;;10.90;90.40;;;;;;6338332;22;20055;-73
2022/12/29 07:14:13;;;;;;;21.08;14.60;;;10.80;90.40;;;;;;6338487;22;20351;-73
2022/12/29 07:16:38;;;;;;;18.73;13.48;;;10.80;90.30;;;;;;6338484;22;19995;-73
2022/12/29 07:19:04;;;;;;;21.65;14.73;;;10.80;90.30;;;;;;6338329;22;19995;-72
2022/12/29 07:21:30;;;;;;;20.30;14.02;;;10.90;90.60;;;;;;6338770;22;20028;-73
2022/12/29 07:23:56;;;;;;;17.98;13.50;;;10.90;90.50;;;;;;6339185;22;20082;-72
2022/12/29 07:26:22;;;;;;;17.10;13.07;;;10.90;90.40;;;;;;6338596;22;20406;-73
2022/12/29 07:28:48;;;;;;;21.90;14.77;;;10.90;90.50;;;;;;6338005;22;20064;-72
2022/12/29 07:31:21;;;;;;;22.40;15.00;;;10.90;90.30;;;;;;6338576;22;20355;-72
2022/12/29 07:33:47;;;;;;;19.67;14.80;;;11.00;90.50;;;;;;6310859;22;20003;-72
2022/12/29 07:36:14;;;;;;;18.80;14.13;;;10.90;90.20;;;;;;6337856;22;20433;-72
2022/12/29 07:38:40;;;;;;;23.10;15.40;;;10.90;90.10;;;;;;6336255;22;20003;-72
2022/12/29 07:41:07;;;;;;;18.90;14.38;;;10.80;90.20;;;;;;6309528;22;20275;-72
2022/12/29 07:43:33;;;;;;;20.10;15.38;;;10.80;90.50;;;;;;6335104;22;20003;-72
2022/12/29 07:45:58;;;;;;;22.15;13.10;;;10.70;90.60;;;;;;6334885;22;20311;-77
2022/12/29 07:48:24;;;;;;;19.45;13.60;;;10.70;90.70;;;;;;6336648;22;20586;-77
2022/12/29 07:50:50;;;;;;;21.00;14.70;;;10.70;90.90;;;;;;6336737;22;20003;-77
2022/12/29 07:53:16;;;;;;;19.48;13.80;;;10.60;91.10;;;;;;6337016;22;20077;-78
2022/12/29 07:55:41;;;;;;;19.20;13.40;;;10.60;91.10;;;;;;6337642;22;20027;-82
2022/12/29 07:58:07;;;;;;;21.52;14.80;;;10.60;91.10;;;;;;6337829;22;20001;-78
2022/12/29 08:00:33;;;;;;;20.52;14.07;;;10.50;91.00;;;;;;6337281;22;20314;-79
2022/12/29 08:02:59;;;;;;;17.80;12.35;;;10.50;91.30;;;;;;6338567;22;20022;-79
2022/12/29 08:05:25;;;;;;;22.02;14.50;;;10.50;91.40;;;;;;6338294;22;19995;-79
2022/12/29 08:07:51;;;;;;;21.00;14.65;;;10.60;91.40;;;;;;6338487;22;20371;-80
2022/12/29 08:10:17;;;;;;;20.55;13.70;;;10.60;91.20;;;;;;6338316;22;19999;-80
2022/12/29 08:12:43;;;;;;;20.67;13.55;;;10.60;91.20;;;;;;6338567;22;20021;-81
2022/12/29 08:15:10;;;;;;;20.75;13.60;;;10.60;91.10;;;;;;6337955;22;20078;-80
2022/12/29 08:17:36;;;;;;;18.05;13.38;;;10.70;91.10;;;;;;6338001;22;20031;-79
2022/12/29 08:20:02;;;;;;;20.73;14.27;;;10.80;91.10;;;;;;6336642;22;20422;-73
2022/12/29 08:22:28;;;;;;;19.20;14.38;;;10.80;91.10;;;;;;6339070;22;20025;-79
2022/12/29 08:24:54;;;;;;;20.13;14.65;;;10.90;90.90;;;;;;6338611;22;20457;-80
2022/12/29 08:27:19;;;;;;;22.33;13.80;;;10.90;90.90;;;;;;6338757;22;20026;-81
2022/12/29 08:29:45;;;;;;;18.67;13.30;;;11.00;91.00;;;;;;6339101;22;20010;-79
2022/12/29 08:32:11;;;;;;;19.85;13.98;;;11.00;90.70;;;;;;6338221;22;20052;-79
2022/12/29 08:34:37;;;;;;;20.92;13.50;;;11.00;90.70;;;;;;6338872;22;20063;-80
2022/12/29 08:37:03;;;;;;;17.83;12.93;;;11.00;90.70;;;;;;6338417;22;20078;-81
2022/12/29 08:39:28;;;;;;;23.70;15.38;;;10.90;90.60;;;;;;6337871;22;20431;-80
2022/12/29 08:41:54;;;;;;;19.95;14.30;;;10.70;90.70;;;;;;6337940;22;20007;-81
2022/12/29 08:44:20;;;;;;;20.13;12.77;;;10.70;90.90;;;;;;6337946;22;20002;-80
2022/12/29 08:46:46;;;;;;;16.60;12.13;;;10.70;91.00;;;;;;6338267;22;19998;-78
2022/12/29 08:49:12;;;;;;;22.63;15.32;;;10.70;90.90;;;;;;6334621;22;20009;-74
2022/12/29 08:51:38;;;;;;;25.80;15.05;;;10.60;90.80;;;;;;6336144;22;20009;-74
2022/12/29 08:54:04;;;;;;;19.35;13.05;;;10.60;90.90;;;;;;6337457;22;19999;-73
2022/12/29 08:56:30;;;;;;;21.13;14.45;;;10.50;91.20;;;;;;6337025;22;20003;-78
2022/12/29 08:58:56;;;;;;;19.73;13.65;;;10.40;91.00;;;;;;6337836;22;20116;-78
2022/12/29 09:01:22;;;;;;;15.70;12.55;;;10.50;91.20;;;;;;6337380;22;20053;-78
2022/12/29 09:03:48;;;;;;;20.98;14.52;;;10.70;91.20;;;;;;6337749;22;20078;-78
2022/12/29 09:06:16;;;;;;;20.15;15.13;;;10.80;90.80;;;;;;6338505;22;20023;-80
2022/12/29 09:08:42;;;;;;;21.40;15.55;;;10.80;90.80;;;;;;6338206;22;19999;-79
2022/12/29 09:11:15;;;;;;;20.77;13.88;;;10.70;91.00;;;;;;6336277;22;20086;-80
2022/12/29 09:13:41;;;;;;;19.02;12.85;;;10.80;91.10;;;;;;6338495;22;20021;-79
2022/12/29 09:16:07;;;;;;;18.33;12.90;;;10.80;91.10;;;;;;6338248;22;20424;-79
2022/12/29 09:18:33;;;;;;;17.52;12.63;;;11.00;91.00;;;;;;6329373;22;19999;-79
2022/12/29 09:21:01;;;;;;;21.92;12.55;;;11.10;91.00;;;;;;6308650;22;20007;-79
2022/12/29 09:23:27;;;;;;;18.17;13.30;;;11.00;90.60;;;;;;6335067;22;20083;-79
2022/12/29 09:25:53;;;;;;;21.20;14.07;;;10.80;90.60;;;;;;6337214;22;20038;-79
2022/12/29 09:28:20;;;;;;;17.35;12.98;;;10.90;90.80;;;;;;6336936;22;20326;-78
2022/12/29 09:30:46;;;;;;;17.00;12.43;;;10.90;90.80;;;;;;6336807;22;20082;-79
2022/12/29 09:33:12;;;;;;;22.92;15.68;;;10.90;90.90;;;;;;6337677;22;19995;-79
2022/12/29 09:35:42;;;;;;;16.42;12.35;;;11.00;90.90;;;;;;6310368;22;19998;-79
2022/12/29 09:38:07;;;;;;;17.58;12.88;;;11.00;90.80;;;;;;6337991;22;19999;-79
2022/12/29 09:40:34;;;;;;;19.92;13.43;;;11.10;90.90;;;;;;6309514;22;20010;-80
2022/12/29 09:43:17;;;;;;;17.77;13.68;;;11.10;90.90;;;;;;6337165;22;20070;-81
2022/12/29 09:46:06;;;;;;;16.02;13.07;;;11.20;90.80;;;;;;6336889;22;19999;-80
2022/12/29 09:48:40;;;;;;;20.33;14.77;;;11.20;90.80;;;;;;6316589;22;20305;-80
2022/12/29 09:51:13;;;;;;;15.85;12.40;;;11.30;90.70;;;;;;6336097;22;20006;-80
2022/12/29 09:53:46;;;;;;;16.38;12.15;;;11.30;90.60;;;;;;6337481;22;20006;-79
2022/12/29 09:56:17;;;;;;;17.27;12.48;;;11.30;90.70;;;;;;6336764;22;19999;-79
2022/12/29 09:58:52;;;;;;;16.65;12.30;;;11.30;90.70;;;;;;6337654;22;20048;-78
2022/12/29 10:01:58;;;;;;;14.57;11.75;;;11.30;90.70;;;;;;6337207;22;20117;-78
2022/12/29 10:04:26;;;;;;;18.40;12.75;;;11.40;90.90;;;;;;6317048;22;20325;-78
2022/12/29 10:07:29;;;;;;;20.35;14.13;;;11.40;90.60;;;;;;6337494;22;20317;-78
2022/12/29 10:10:43;;;;;;;19.55;14.95;;;11.50;90.40;;;;;;6246383;22;20006;-79
2022/12/29 10:13:23;;;;;;;17.90;13.60;;;11.40;89.30;;;;;;6333833;22;20017;-80
2022/12/29 10:15:56;;;;;;;17.83;13.07;;;11.30;89.30;;;;;;6335938;22;19995;-80
2022/12/29 10:18:56;;;;;;;18.08;12.98;;;11.30;90.00;;;;;;6335318;22;19999;-78
2022/12/29 10:21:44;;;;;;;18.70;14.00;;;11.30;90.10;;;;;;6336004;22;19999;-78
2022/12/29 10:24:12;;;;;;;28.52;13.52;;;11.40;89.70;;;;;;6337829;22;20225;-79
2022/12/29 10:26:43;;;;;;;17.25;13.65;;;11.40;89.70;;;;;;6338076;22;20010;-79
2022/12/29 10:29:24;;;;;;;19.85;13.90;;;11.50;89.80;;;;;;6336727;22;20086;-79
2022/12/29 10:32:12;;;;;;;19.80;13.52;;;11.50;89.60;;;;;;6337750;22;20056;-78
2022/12/29 10:34:44;;;;;;;20.58;14.88;;;11.60;89.40;;;;;;6336690;22;20051;-78
2022/12/29 10:37:53;;;;;;;17.80;13.52;;;11.70;89.30;;;;;;6338419;22;20005;-79
2022/12/29 10:40:43;;;;;;;18.10;13.82;;;11.90;88.80;;;;;;6183313;23;20455;-78
2022/12/29 10:43:27;;;;;;;18.52;13.77;;;12.00;89.00;;;;;;6182984;23;20313;-78
2022/12/29 10:45:56;;;;;;;21.38;13.63;;;12.20;88.80;;;;;;6305452;22;20003;-79
2022/12/29 10:48:31;;;;;;;20.23;15.07;;;12.20;87.90;;;;;;6338830;22;19995;-79
2022/12/29 10:51:01;;;;;;;16.98;13.38;;;12.20;87.40;;;;;;6338468;22;20248;-79
2022/12/29 10:53:45;;;;;;;21.60;15.13;;;12.10;86.80;;;;;;6339756;22;19995;-79
2022/12/29 10:56:29;;;;;;;19.20;14.15;;;12.10;86.50;;;;;;6338880;22;20024;-79
2022/12/29 10:58:57;;;;;;;21.77;16.70;;;12.00;87.00;;;;;;6339116;22;20003;-79
2022/12/29 11:01:31;;;;;;;19.52;15.55;;;11.90;87.20;;;;;;6339602;22;20396;-78
2022/12/29 11:04:19;;;;;;;20.08;14.20;;;11.80;87.70;;;;;;6338523;22;20455;-78
2022/12/29 11:06:45;;;;;;;20.50;15.77;;;11.90;88.10;;;;;;6267460;22;20003;-79
2022/12/29 11:09:23;;;;;;;18.98;14.05;;;12.00;88.00;;;;;;6338733;22;20003;-80
2022/12/29 11:11:48;;;;;;;16.83;13.23;;;12.10;88.30;;;;;;6337353;22;19999;-81
2022/12/29 11:14:35;;;;;;;18.85;14.63;;;12.30;89.50;;;;;;6338793;22;20436;-79
2022/12/29 11:17:03;;;;;;;16.65;11.93;;;12.60;90.60;;;;;;6338104;22;19995;-80
2022/12/29 11:19:31;;;;;;;20.38;14.50;;;12.80;90.90;;;;;;6337299;22;19998;-80
2022/12/29 11:22:28;;;;;;;18.88;14.55;;;12.90;89.70;;;;;;6337769;22;19999;-79
2022/12/29 11:25:04;;;;;;;20.63;15.25;;;12.90;87.60;;;;;;6338719;22;20030;-79
2022/12/29 11:27:30;;;;;;;19.02;13.98;;;12.90;87.00;;;;;;6336609;22;20010;-78
2022/12/29 11:29:55;;;;;;;20.50;15.02;;;12.90;86.90;;;;;;6338076;22;20022;-78
2022/12/29 11:32:32;;;;;;;20.63;15.30;;;12.90;86.90;;;;;;6336890;22;20386;-79
2022/12/29 11:34:58;;;;;;;27.00;16.73;;;12.80;86.90;;;;;;6337855;22;20012;-79
2022/12/29 11:37:38;;;;;;;22.60;15.68;;;12.80;86.90;;;;;;6309856;22;20096;-80
2022/12/29 11:40:23;;;;;;;21.77;15.00;;;12.90;86.80;;;;;;6338598;22;20059;-73
2022/12/29 11:42:56;;;;;;;26.58;17.13;;;12.90;86.40;;;;;;6338439;22;20007;-72
2022/12/29 11:45:23;;;;;;;20.70;15.65;;;12.90;86.40;;;;;;6338441;22;20006;-73
2022/12/29 11:48:08;;;;;;;22.88;17.33;;;12.80;86.50;;;;;;6337839;22;20041;-72
2022/12/29 11:50:38;;;;;;;21.58;15.27;;;12.80;86.70;;;;;;6337882;22;20030;-73
2022/12/29 11:53:32;;;;;;;21.58;15.57;;;12.80;86.80;;;;;;6338831;22;19994;-72
2022/12/29 11:56:19;;;;;;;22.92;15.77;;;12.90;86.90;;;;;;6339160;22;20026;-72
2022/12/29 11:58:49;;;;;;;21.30;16.13;;;13.00;87.00;;;;;;6338559;22;20024;-73
2022/12/29 12:01:28;;;;;;;19.67;15.07;;;13.00;87.00;;;;;;6310597;22;20098;-73
2022/12/29 12:04:16;;;;;;;22.25;16.65;;;13.20;87.10;;;;;;6338580;22;20511;-79
2022/12/29 12:07:12;;;;;;;21.75;16.90;;;13.80;87.50;;;;;;6338413;22;20055;-80
2022/12/29 12:10:02;;;;;;;21.80;16.38;;;14.30;86.00;;;;;;6338853;22;20006;-81
2022/12/29 12:12:34;;;;;;;22.10;16.70;;;14.40;84.40;;;;;;6309754;22;20006;-81
2022/12/29 12:15:39;;;;;;;19.80;16.05;;;14.40;83.20;;;;;;6310691;22;20093;-82
2022/12/29 12:18:19;;;;;;;22.52;16.80;;;14.50;82.30;;;;;;6181877;23;20084;-73
2022/12/29 12:20:45;;;;;;;;;;;14.70;82.60;;;;;;6298360;22;20003;-79
2022/12/29 12:23:22;;;;;;;21.52;15.13;;;14.90;80.00;;;;;;6337465;22;19993;-73
2022/12/29 12:25:57;;;;;;;21.80;15.98;;;15.00;81.00;;;;;;6338038;22;20034;-74
2022/12/29 12:28:23;;;;;;;19.30;15.70;;;14.80;80.80;;;;;;6336835;22;20007;-74
2022/12/29 12:30:53;;;;;;;19.88;16.50;;;14.90;81.50;;;;;;6336239;22;20002;-74
2022/12/29 12:33:33;;;;;;;21.80;16.77;;;15.00;81.10;;;;;;6337482;22;20003;-80
2022/12/29 12:36:24;;;;;;;20.70;15.82;;;15.00;80.80;;;;;;6309315;22;20484;-81
2022/12/29 12:38:59;;;;;;;;;;;15.00;81.20;;;;;;6337464;22;20006;-74
2022/12/29 12:41:31;;;;;;;22.40;17.17;;;15.00;80.90;;;;;;6308815;22;19921;-74
2022/12/29 12:44:47;;;;;;;21.80;17.02;;;14.80;80.30;;;;;;6336983;22;20429;-75
2022/12/29 12:47:51;;;;;;;22.10;17.42;;;14.70;80.90;;;;;;6180854;23;20005;-75
2022/12/29 12:51:10;;;;;;;23.90;16.98;;;14.60;80.70;;;;;;6159609;23;20432;-81
2022/12/29 12:54:02;;;;;;;22.70;17.00;;;14.50;81.30;;;;;;6176230;23;20084;-75
2022/12/29 12:56:55;;;;;;;20.45;15.25;;;14.50;81.30;;;;;;6179736;23;20080;-75
2022/12/29 12:59:38;;;;;;;24.35;17.92;;;14.40;81.80;;;;;;6180546;23;20001;-81
2022/12/29 13:02:36;;;;;;;22.88;16.77;;;14.40;81.70;;;;;;6272049;22;20441;-81
2022/12/29 13:05:01;;;;;;;24.00;17.30;;;14.20;81.50;;;;;;6335237;22;19999;-80
2022/12/29 13:07:36;;;;;;;21.35;16.88;;;14.10;82.00;;;;;;6339277;22;20003;-82
2022/12/29 13:10:29;;;;;;;23.63;17.15;;;14.00;82.10;;;;;;6340358;22;20014;-80
2022/12/29 13:13:23;;;;;;;22.27;16.25;;;13.90;82.40;;;;;;6351416;22;20009;-81
2022/12/29 13:16:19;;;;;;;21.52;16.85;;;13.90;82.60;;;;;;6349431;22;20003;-80
2022/12/29 13:19:08;;;;;;;22.15;17.10;;;13.90;83.10;;;;;;6346735;22;20052;-80
2022/12/29 13:22:01;;;;;;;25.10;18.77;;;13.80;83.50;;;;;;6346278;22;19999;-80
2022/12/29 13:24:50;;;;;;;20.60;16.45;;;13.80;83.40;;;;;;6337737;22;20003;-79
2022/12/29 13:27:45;;;;;;;21.40;16.50;;;13.60;83.80;;;;;;6338029;22;20002;-80